Portada
METAR-TAF:

METAR-TAF

Aeroports :

Ōita, Japó

latitud: 33-29N, longitud: 131-44E, altitud: 5 m

Observació

L'informe es va fer fa 8 hores i 8 minuts, a les 13:00 UTC
Vent 5 kt del Oest
Temperatura 8°C
Humitat 66%
Pressió 1020 hPa
Visibilitat 10 km o més
sense núvols per sota de 1500 mi sense presència de cumulonimbus.

METAR: RJFO 151300Z 27005KT CAVOK 08/02 Q1020

Hora: 06:08 (21:08 UTC)

Pronòstic

L'informe es va fer fa 4 hores i 3 minuts, a les 17:05 UTC
Pronòstic vàlid del 15 a les 18 UTC al 17 a les 00 UTC
Vent 4 kt del Oest
Visibilitat 10 km o més
sense núvols per sota de 1500 mi sense presència de cumulonimbus.
Evolucionant progressivament
l' 16 a les 00 UTC al 16 a les 02 UTC
Vent 5 kt del Nord/Nord-Est
Evolucionant progressivament
l' 16 a les 09 UTC al 16 a les 12 UTC
Vent 4 kt del Oest/Sud-Oest

TAF: RJFO 151705Z 1518/1700 26004KT CAVOK BECMG 1600/1602 03005KT BECMG 1609/1612 25004KT

Observacions i pronòstics meteorològics de més de 4000 aeroports (METAR i TAF).

Les estacions disponibles són els punts grocs i vermells al mapa.

Posi el ratolí al punt desitjat per veure el nom de l'estació.

Feu clic per veure les observacions i els pronòstics meteorològics.

Per canviar el mapa: feu clic els botons verds amb una creu de color negre per apropar; al botó verd amb un guió per allunyar la imatge; o en les fletxes verdes per a mapes adjacents.


METAR-TAF: